Time;durP1;ratioP1;P1;durP2;ratioP2;P2;SDS_P1;SDS_P2;PMS_P1;PMS_P2;Temp;Humidity;BMP_temperature;BMP_pressure;BME280_temperature;BME280_humidity;BME280_pressure;Samples;Min_cycle;Max_cycle;Signal;HPM_P1;HPM_P2
2023/03/05 00:01:47;;;;;;;14.23;6.90;;;;;;;3.68;59.39;99560.94;4483348;32;20129;-85
2023/03/05 00:04:13;;;;;;;13.62;6.65;;;;;;;3.70;59.39;99566.91;4483531;31;20382;-84
2023/03/05 00:06:39;;;;;;;16.75;6.90;;;;;;;3.75;59.38;99558.28;4477161;31;20108;-85
2023/03/05 00:09:04;;;;;;;15.80;6.72;;;;;;;3.87;59.39;99556.50;4488528;31;20092;-84
2023/03/05 00:11:30;;;;;;;13.82;6.18;;;;;;;3.55;59.38;99568.72;4476581;31;20559;-84
2023/03/05 00:13:56;;;;;;;16.77;8.00;;;;;;;3.83;59.40;99557.41;4487209;31;20092;-84
2023/03/05 00:16:21;;;;;;;11.95;6.70;;;;;;;3.84;59.40;99561.69;4463169;31;20207;-84
2023/03/05 00:18:47;;;;;;;15.27;6.93;;;;;;;3.76;59.39;99555.72;4487273;31;20110;-84
2023/03/05 00:21:21;;;;;;;13.85;6.82;;;;;;;3.78;59.40;99561.69;4485876;31;20168;-84
2023/03/05 00:23:47;;;;;;;12.43;6.03;;;;;;;3.91;59.40;99568.47;4471104;31;20106;-85
2023/03/05 00:26:12;;;;;;;18.55;6.72;;;;;;;3.95;59.40;99564.16;4470129;32;20503;-84
2023/03/05 00:28:37;;;;;;;14.27;6.65;;;;;;;3.86;59.40;99559.94;4482768;31;20187;-84
2023/03/05 00:31:03;;;;;;;15.23;6.10;;;;;;;3.55;59.38;99561.91;4472405;31;20574;-84
2023/03/05 00:33:28;;;;;;;16.27;6.85;;;;;;;3.73;59.39;99563.47;4487675;31;20602;-85
2023/03/05 00:35:54;;;;;;;13.27;6.40;;;;;;;3.78;59.39;99559.13;4483887;31;20511;-84
2023/03/05 00:38:19;;;;;;;11.48;5.45;;;;;;;3.77;59.39;99567.72;4469563;32;21191;-84
2023/03/05 00:40:45;;;;;;;16.37;6.50;;;;;;;3.87;59.39;99563.38;4485266;31;20155;-84
2023/03/05 00:43:10;;;;;;;14.45;6.18;;;;;;;3.84;59.40;99559.09;4487586;31;20404;-84
2023/03/05 00:45:35;;;;;;;12.90;6.00;;;;;;;3.71;59.39;99562.62;4482806;32;20145;-85
2023/03/05 00:48:01;;;;;;;15.00;6.35;;;;;;;3.50;59.37;99555.91;4481568;31;20342;-86
2023/03/05 00:50:27;;;;;;;15.73;6.72;;;;;;;3.62;59.38;99560.13;4491790;31;20123;-85
2023/03/05 00:52:52;;;;;;;11.45;5.65;;;;;;;3.48;59.38;99549.91;4483662;31;20141;-85
2023/03/05 00:55:17;;;;;;;12.02;5.97;;;;;;;3.58;59.38;99555.88;4482886;32;20376;-85
2023/03/05 00:57:43;;;;;;;13.93;6.32;;;;;;;3.51;59.37;99551.59;4482657;32;20100;-85
2023/03/05 01:00:12;;;;;;;9.95;5.60;;;;;;;3.61;59.38;99548.12;4475870;31;20105;-85
2023/03/05 01:02:38;;;;;;;14.55;6.12;;;;;;;3.61;59.39;99548.97;4485037;31;20151;-84
2023/03/05 01:05:03;;;;;;;14.60;6.18;;;;;;;3.58;59.38;99545.56;4491746;31;20144;-84
2023/03/05 01:07:29;;;;;;;13.02;6.60;;;;;;;3.49;59.38;99545.63;4483821;31;20518;-84
2023/03/05 01:09:54;;;;;;;13.45;5.87;;;;;;;3.53;59.38;99549.88;4469223;32;20127;-84
2023/03/05 01:12:19;;;;;;;14.23;6.72;;;;;;;3.71;59.39;99547.19;4483627;31;20159;-85
2023/03/05 01:14:45;;;;;;;9.70;5.82;;;;;;;3.73;59.39;99545.44;4483942;31;20115;-85
2023/03/05 01:17:10;;;;;;;13.62;6.60;;;;;;;3.79;59.39;99550.56;4479373;31;23698;-85
2023/03/05 01:19:36;;;;;;;11.05;5.93;;;;;;;3.93;59.40;99542.72;4482160;32;20482;-85
2023/03/05 01:22:01;;;;;;;11.68;5.55;;;;;;;3.74;59.39;99546.28;4483565;31;20194;-85
2023/03/05 01:24:26;;;;;;;12.80;5.95;;;;;;;3.88;59.39;99545.34;4482131;32;20145;-85
2023/03/05 01:26:52;;;;;;;13.57;5.82;;;;;;;4.04;59.40;99551.22;4484197;31;20172;-85
2023/03/05 01:29:17;;;;;;;13.18;6.55;;;;;;;3.78;59.39;99550.56;4494350;31;20148;-85
2023/03/05 01:31:43;;;;;;;11.82;6.12;;;;;;;3.96;59.40;99553.84;4484014;31;20122;-85
2023/03/05 01:34:08;;;;;;;13.98;7.03;;;;;;;4.09;59.41;99552.03;4486382;31;20475;-84
2023/03/05 01:36:33;;;;;;;10.85;6.03;;;;;;;4.02;59.40;99555.50;4486466;31;20441;-84
2023/03/05 01:38:59;;;;;;;15.10;6.00;;;;;;;3.85;59.40;99547.09;4476725;31;20527;-85
2023/03/05 01:41:25;;;;;;;13.65;6.37;;;;;;;3.93;59.40;99553.00;4491419;31;20100;-85
2023/03/05 01:43:51;;;;;;;12.20;5.70;;;;;;;4.10;59.41;99542.56;4477300;31;20208;-85
2023/03/05 01:46:23;;;;;;;12.40;5.78;;;;;;;3.83;59.40;99548.81;4486648;31;20153;-84
2023/03/05 01:49:10;;;;;;;13.25;5.82;;;;;;;4.08;59.41;99542.59;4484446;32;20134;-85
2023/03/05 01:51:47;;;;;;;10.73;6.35;;;;;;;4.06;59.42;99538.31;4470820;32;20167;-85
2023/03/05 01:54:13;;;;;;;14.35;6.18;;;;;;;4.18;59.41;99545.91;4484371;31;20111;-85
2023/03/05 01:56:39;;;;;;;13.25;6.40;;;;;;;4.16;59.41;99543.34;4484445;32;20096;-85
2023/03/05 01:59:04;;;;;;;13.10;6.62;;;;;;;4.31;59.42;99544.94;4482903;31;107666;-84
2023/03/05 02:01:32;;;;;;;14.65;7.25;;;;;;;4.35;59.42;99545.75;4484094;32;20135;-85
2023/03/05 02:03:57;;;;;;;13.82;6.72;;;;;;;4.42;59.42;99547.41;4484449;32;20338;-85
2023/03/05 02:06:28;;;;;;;13.60;5.68;;;;;;;4.41;59.43;99538.81;4484255;32;20137;-84
2023/03/05 02:08:53;;;;;;;10.52;5.65;;;;;;;4.46;59.43;99544.78;4484307;31;20454;-85
2023/03/05 02:11:19;;;;;;;16.95;6.95;;;;;;;4.49;59.44;99549.88;4484030;32;21269;-85
2023/03/05 02:13:44;;;;;;;13.43;5.32;;;;;;;4.41;59.43;99543.97;4468925;31;20100;-85
2023/03/05 02:16:10;;;;;;;16.77;6.43;;;;;;;4.40;59.43;99542.25;4489988;31;20104;-85
2023/03/05 02:18:35;;;;;;;10.52;5.65;;;;;;;4.45;59.43;99540.47;4486720;31;20120;-85
2023/03/05 02:21:09;;;;;;;11.07;6.37;;;;;;;4.47;59.42;99543.91;4470920;32;20128;-84
2023/03/05 02:23:35;;;;;;;12.07;6.65;;;;;;;4.51;59.43;99537.88;4478357;31;20525;-85
2023/03/05 02:26:01;;;;;;;10.70;6.25;;;;;;;4.54;59.43;99542.97;4471651;32;20160;-85
2023/03/05 02:28:29;;;;;;;13.93;6.15;;;;;;;4.55;59.43;99536.09;4485849;31;20488;-85
2023/03/05 02:30:55;;;;;;;13.50;6.05;;;;;;;4.54;59.43;99537.81;4484664;32;20123;-85
2023/03/05 02:33:20;;;;;;;12.10;6.95;;;;;;;4.68;59.44;99529.91;4469203;31;20104;-85
2023/03/05 02:35:46;;;;;;;13.70;6.80;;;;;;;4.29;59.42;99526.94;4486186;32;20096;-85
2023/03/05 02:38:13;;;;;;;13.23;6.37;;;;;;;4.47;59.43;99525.84;4487628;31;20560;-85
2023/03/05 02:40:38;;;;;;;16.00;7.03;;;;;;;4.44;59.43;99527.63;4474521;32;20096;-85
2023/03/05 02:43:04;;;;;;;12.60;6.70;;;;;;;4.31;59.42;99529.47;4484098;31;20126;-86
2023/03/05 02:45:29;;;;;;;15.32;6.87;;;;;;;4.37;59.43;99526.84;4485979;31;20132;-85
2023/03/05 02:47:54;;;;;;;10.55;5.50;;;;;;;4.43;59.43;99539.66;4483843;31;20168;-85
2023/03/05 02:50:20;;;;;;;13.45;6.10;;;;;;;4.27;59.43;99532.97;4470995;32;20394;-85
2023/03/05 02:52:45;;;;;;;11.38;6.00;;;;;;;4.45;59.43;99529.31;4466514;32;20096;-85
2023/03/05 02:55:11;;;;;;;10.65;5.53;;;;;;;4.40;59.42;99534.53;4485512;31;20071;-85
2023/03/05 02:57:36;;;;;;;11.48;6.00;;;;;;;4.28;59.42;99537.25;4483577;32;21675;-85
2023/03/05 03:00:03;;;;;;;12.68;6.28;;;;;;;4.30;59.42;99530.34;4484137;32;20114;-85
2023/03/05 03:02:28;;;;;;;12.57;5.57;;;;;;;4.21;59.42;99528.72;4485228;31;20176;-85
2023/03/05 03:04:53;;;;;;;13.23;6.10;;;;;;;4.23;59.42;99528.69;4483982;32;20147;-85
2023/03/05 03:07:19;;;;;;;11.68;6.20;;;;;;;4.04;59.40;99519.47;4485093;31;20479;-84
2023/03/05 03:09:44;;;;;;;13.48;6.60;;;;;;;4.22;59.42;99519.25;4483842;32;20132;-85
2023/03/05 03:12:10;;;;;;;14.07;5.72;;;;;;;4.21;59.42;99526.13;4484873;31;20132;-85
2023/03/05 03:14:38;;;;;;;12.02;6.47;;;;;;;4.26;59.41;99526.09;4476356;31;20096;-85
2023/03/05 03:17:07;;;;;;;17.20;6.75;;;;;;;4.01;59.41;99521.16;4470843;31;20097;-85
2023/03/05 03:19:33;;;;;;;13.93;6.12;;;;;;;3.97;59.41;99527.22;4483896;32;20130;-85
2023/03/05 03:21:59;;;;;;;15.25;6.45;;;;;;;3.94;59.40;99519.53;4483476;31;20124;-85
2023/03/05 03:24:24;;;;;;;17.65;6.70;;;;;;;4.26;59.41;99515.81;4485314;31;20100;-85
2023/03/05 03:26:50;;;;;;;14.77;6.30;;;;;;;3.97;59.41;99527.22;4483399;31;20414;-84
2023/03/05 03:29:16;;;;;;;16.52;6.53;;;;;;;3.71;59.39;99521.44;4485054;31;20093;-85
2023/03/05 03:31:44;;;;;;;13.23;6.25;;;;;;;3.97;59.41;99519.50;4485302;31;20155;-85
2023/03/05 03:34:10;;;;;;;12.25;5.65;;;;;;;3.75;59.38;99515.38;4485127;31;20118;-85
2023/03/05 03:36:36;;;;;;;15.43;6.32;;;;;;;3.74;59.38;99513.69;4481208;31;20121;-85
2023/03/05 03:39:02;;;;;;;11.43;5.37;;;;;;;3.76;59.39;99519.66;4483584;32;20148;-85
2023/03/05 03:41:28;;;;;;;12.63;6.35;;;;;;;3.89;59.39;99513.56;4485151;31;20483;-85
2023/03/05 03:43:53;;;;;;;10.57;5.55;;;;;;;3.78;59.39;99514.50;4483560;32;20128;-85
2023/03/05 03:46:18;;;;;;;11.45;5.50;;;;;;;3.74;59.38;99518.84;4484872;31;20152;-85
2023/03/05 03:48:44;;;;;;;17.12;6.62;;;;;;;3.94;59.40;99511.78;4484469;31;20140;-84
2023/03/05 03:51:09;;;;;;;12.60;6.05;;;;;;;3.60;59.38;99520.69;4480908;31;20508;-85
2023/03/05 03:53:34;;;;;;;15.48;6.50;;;;;;;3.49;59.37;99517.31;4494695;31;20167;-85
2023/03/05 03:56:00;;;;;;;15.50;7.05;;;;;;;3.38;59.36;99519.97;4482534;32;25744;-85
2023/03/05 03:58:25;;;;;;;11.32;6.00;;;;;;;3.49;59.37;99525.88;4463085;31;20122;-85
2023/03/05 04:00:51;;;;;;;15.48;6.07;;;;;;;3.59;59.38;99519.81;4488378;31;22012;-85
2023/03/05 04:03:16;;;;;;;14.20;5.85;;;;;;;3.36;59.36;99519.13;4484521;31;20136;-85
2023/03/05 04:05:41;;;;;;;14.65;5.30;;;;;;;3.36;59.36;99516.56;4485873;31;20164;-85
2023/03/05 04:08:10;;;;;;;16.23;6.12;;;;;;;3.49;59.37;99512.16;4483087;32;20112;-85
2023/03/05 04:10:38;;;;;;;12.68;6.47;;;;;;;3.44;59.37;99516.50;4483659;32;20088;-85
2023/03/05 04:13:03;;;;;;;13.35;6.28;;;;;;;3.60;59.38;99510.38;4484789;31;20112;-85
2023/03/05 04:15:28;;;;;;;14.35;6.35;;;;;;;3.41;59.37;99508.81;4484329;31;20104;-85
2023/03/05 04:17:54;;;;;;;13.32;6.75;;;;;;;3.44;59.37;99507.06;4482811;32;20164;-85
2023/03/05 04:20:19;;;;;;;14.45;6.18;;;;;;;3.51;59.37;99505.28;4482891;31;20139;-85
2023/03/05 04:22:44;;;;;;;18.42;6.20;;;;;;;3.44;59.37;99512.19;4484641;31;20120;-85
2023/03/05 04:25:10;;;;;;;12.98;5.45;;;;;;;3.28;59.36;99511.44;4482605;31;21034;-85
2023/03/05 04:27:36;;;;;;;15.50;6.12;;;;;;;3.37;59.36;99511.41;4482827;32;20492;-85
2023/03/05 04:30:02;;;;;;;13.23;5.57;;;;;;;3.46;59.38;99507.91;4470155;31;20095;-85
2023/03/05 04:32:28;;;;;;;11.55;5.82;;;;;;;3.40;59.37;99510.53;4484511;31;20137;-85
2023/03/05 04:34:55;;;;;;;15.88;5.80;;;;;;;3.38;59.36;99504.53;4485429;31;20112;-85
2023/03/05 04:37:20;;;;;;;14.00;5.57;;;;;;;3.41;59.37;99506.22;4483006;32;20108;-85
2023/03/05 04:39:46;;;;;;;14.25;6.35;;;;;;;3.53;59.38;99500.97;4469395;31;21701;-85
2023/03/05 04:42:11;;;;;;;13.55;6.68;;;;;;;3.55;59.38;99499.25;4469869;32;20118;-84
2023/03/05 04:44:36;;;;;;;17.25;6.20;;;;;;;3.69;59.39;99500.00;4483813;31;20462;-85
2023/03/05 04:47:02;;;;;;;13.38;5.95;;;;;;;3.78;59.39;99497.34;4484233;31;20166;-85
2023/03/05 04:49:28;;;;;;;14.45;7.15;;;;;;;3.87;59.39;99497.28;4482701;32;20100;-85
2023/03/05 04:51:53;;;;;;;15.77;7.60;;;;;;;3.86;59.40;99499.88;4469723;32;20190;-85
2023/03/05 04:54:19;;;;;;;17.08;7.22;;;;;;;3.92;59.40;99495.50;4480108;31;20120;-85
2023/03/05 04:56:44;;;;;;;14.87;6.85;;;;;;;3.89;59.39;99492.13;4482721;32;20144;-85
2023/03/05 04:59:09;;;;;;;16.52;6.47;;;;;;;3.94;59.40;99490.34;4469375;32;20538;-85
2023/03/05 05:01:36;;;;;;;14.13;6.45;;;;;;;3.82;59.39;99488.75;4482286;32;20144;-85
2023/03/05 05:04:01;;;;;;;13.52;6.00;;;;;;;3.88;59.39;99485.25;4465151;31;20399;-85
2023/03/05 05:06:27;;;;;;;13.45;6.05;;;;;;;3.82;59.39;99481.03;4492865;31;20161;-85
2023/03/05 05:08:52;;;;;;;14.82;5.75;;;;;;;3.97;59.40;99485.16;4481081;31;20459;-85
2023/03/05 05:11:17;;;;;;;14.23;5.72;;;;;;;4.03;59.40;99486.84;4486013;31;20522;-85
2023/03/05 05:13:43;;;;;;;14.55;6.50;;;;;;;4.00;59.41;99500.56;4479601;31;20164;-85
2023/03/05 05:16:08;;;;;;;11.07;5.57;;;;;;;3.99;59.41;99480.84;4485621;31;20220;-85
2023/03/05 05:18:34;;;;;;;14.02;5.93;;;;;;;3.92;59.40;99492.94;4485957;31;20068;-85
2023/03/05 05:20:59;;;;;;;11.48;5.50;;;;;;;3.97;59.40;99492.88;4486197;31;20177;-85
2023/03/05 05:23:25;;;;;;;11.23;6.05;;;;;;;4.11;59.41;99492.75;4484654;32;20202;-85
2023/03/05 05:26:00;;;;;;;12.13;6.05;;;;;;;4.07;59.41;99498.81;4471567;32;20148;-85
2023/03/05 05:28:26;;;;;;;12.13;5.37;;;;;;;4.30;59.42;99494.28;4484546;31;20084;-85
2023/03/05 05:30:51;;;;;;;15.43;6.50;;;;;;;4.21;59.42;99495.22;4485766;31;20069;-85
2023/03/05 05:33:17;;;;;;;11.12;5.95;;;;;;;4.28;59.42;99503.75;4484386;31;20453;-85
2023/03/05 05:35:42;;;;;;;10.90;5.32;;;;;;;4.38;59.43;99509.66;4484372;32;20174;-85
2023/03/05 05:38:08;;;;;;;11.30;6.07;;;;;;;4.40;59.42;99506.19;4481057;31;20887;-85
2023/03/05 05:40:33;;;;;;;12.02;5.85;;;;;;;4.49;59.44;99498.34;4484462;31;20453;-85
2023/03/05 05:42:58;;;;;;;16.90;7.10;;;;;;;4.60;59.44;99496.50;4484182;32;20100;-85
2023/03/05 05:45:24;;;;;;;18.75;7.15;;;;;;;4.57;59.44;99493.13;4485245;31;20160;-85
2023/03/05 05:47:49;;;;;;;18.67;7.00;;;;;;;4.71;59.44;99498.09;4467783;31;20745;-85
2023/03/05 05:50:15;;;;;;;15.65;6.37;;;;;;;4.86;59.45;99515.97;4485991;31;22464;-85
2023/03/05 05:52:41;;;;;;;12.13;5.80;;;;;;;4.89;59.45;99518.50;4484466;32;20120;-85
2023/03/05 05:55:06;;;;;;;12.77;6.37;;;;;;;4.92;59.45;99503.81;4485628;31;20493;-85
2023/03/05 05:57:33;;;;;;;15.43;6.25;;;;;;;4.95;59.46;99510.66;4485846;31;20084;-85
2023/03/05 05:59:58;;;;;;;13.60;6.32;;;;;;;4.94;59.46;99519.28;4485686;31;20089;-85
2023/03/05 06:02:26;;;;;;;14.93;7.05;;;;;;;5.01;59.47;99518.34;4485560;31;20232;-85
2023/03/05 06:04:51;;;;;;;17.12;7.43;;;;;;;5.11;59.47;99521.66;4484317;32;20148;-85
2023/03/05 06:07:16;;;;;;;19.30;7.62;;;;;;;5.35;59.48;99523.88;4485195;31;20140;-85
2023/03/05 06:09:42;;;;;;;20.98;11.68;;;;;;;5.24;59.48;99521.47;4485856;31;20155;-85
2023/03/05 06:12:07;;;;;;;19.25;12.13;;;;;;;5.24;59.48;99524.06;4492969;31;20104;-86
2023/03/05 06:14:33;;;;;;;14.25;8.50;;;;;;;5.28;59.47;99521.41;4485462;31;20160;-85
2023/03/05 06:16:58;;;;;;;13.88;6.87;;;;;;;5.30;59.47;99517.09;4501442;31;20152;-85
2023/03/05 06:19:23;;;;;;;17.17;7.00;;;;;;;5.26;59.48;99521.44;4485158;31;20159;-85
2023/03/05 06:21:49;;;;;;;12.05;6.25;;;;;;;5.62;59.50;99519.19;4483973;32;21376;-85
2023/03/05 06:24:14;;;;;;;13.95;6.70;;;;;;;5.62;59.50;99524.34;4484069;32;20140;-85
2023/03/05 06:26:40;;;;;;;16.60;7.37;;;;;;;5.33;59.48;99527.38;4484072;32;20191;-85
2023/03/05 06:29:05;;;;;;;16.83;7.68;;;;;;;5.62;59.50;99521.75;4484064;32;20141;-85
2023/03/05 06:31:31;;;;;;;17.67;7.30;;;;;;;5.62;59.50;99522.59;4483619;32;22500;-85
2023/03/05 06:34:00;;;;;;;15.60;6.87;;;;;;;5.42;59.48;99522.91;4485402;31;20088;-86
2023/03/05 06:36:25;;;;;;;13.98;5.87;;;;;;;5.47;59.48;99534.03;4481677;31;20104;-85
2023/03/05 06:38:51;;;;;;;17.87;7.47;;;;;;;5.63;59.50;99520.87;4473334;31;20132;-85
2023/03/05 06:41:18;;;;;;;13.55;7.43;;;;;;;5.60;59.49;99521.78;4470748;32;20141;-85
2023/03/05 06:43:44;;;;;;;11.55;6.60;;;;;;;5.70;59.50;99517.34;4484123;32;20202;-85
2023/03/05 06:46:13;;;;;;;15.75;6.82;;;;;;;5.66;59.49;99521.69;4485563;31;20167;-85
2023/03/05 06:48:38;;;;;;;15.83;7.03;;;;;;;5.80;59.50;99519.75;4483961;32;20088;-86
2023/03/05 06:51:04;;;;;;;17.12;7.93;;;;;;;5.82;59.50;99520.56;4483824;32;20138;-85
2023/03/05 06:53:29;;;;;;;14.43;6.87;;;;;;;6.05;59.51;99520.22;4483892;32;20218;-86
2023/03/05 06:55:55;;;;;;;12.93;6.18;;;;;;;5.98;59.51;99517.78;4483755;32;20390;-85
2023/03/05 06:58:20;;;;;;;17.27;7.47;;;;;;;6.13;59.53;99514.91;4470979;32;20417;-85
2023/03/05 07:00:46;;;;;;;13.27;6.45;;;;;;;6.13;59.53;99514.91;4486399;31;20119;-85
2023/03/05 07:03:11;;;;;;;12.37;6.47;;;;;;;6.36;59.54;99507.56;4487967;31;20088;-85
2023/03/05 07:05:38;;;;;;;14.25;6.65;;;;;;;6.56;59.54;99519.28;4480417;31;20505;-85
2023/03/05 07:08:03;;;;;;;15.43;7.72;;;;;;;6.49;59.54;99515.13;4484632;31;20127;-85
2023/03/05 07:10:29;;;;;;;14.20;7.05;;;;;;;6.62;59.55;99519.16;4483541;32;22699;-85
2023/03/05 07:12:54;;;;;;;14.73;6.90;;;;;;;6.66;59.56;99519.09;4489241;31;20365;-85
2023/03/05 07:15:19;;;;;;;16.65;7.57;;;;;;;6.92;59.57;99515.97;4483910;32;20144;-85
2023/03/05 07:17:45;;;;;;;16.58;7.43;;;;;;;6.97;59.57;99516.72;4485128;31;20160;-85
2023/03/05 07:20:11;;;;;;;15.30;7.25;;;;;;;7.14;59.58;99508.59;4483501;32;20587;-85
2023/03/05 07:22:37;;;;;;;17.40;7.75;;;;;;;7.30;59.59;99516.84;4485291;31;20381;-85
2023/03/05 07:25:02;;;;;;;19.42;8.60;;;;;;;6.94;59.57;99514.19;4484069;32;20080;-85
2023/03/05 07:27:28;;;;;;;17.77;8.10;;;;;;;6.72;59.56;99516.38;4483815;32;20147;-85
2023/03/05 07:29:53;;;;;;;17.73;8.52;;;;;;;6.67;59.56;99514.75;4483344;32;20148;-84
2023/03/05 07:32:19;;;;;;;18.02;7.30;;;;;;;6.70;59.55;99514.69;4482882;32;20160;-85
2023/03/05 07:34:44;;;;;;;19.77;8.88;;;;;;;6.55;59.55;99515.84;4486262;31;20402;-85
2023/03/05 07:37:09;;;;;;;15.75;8.02;;;;;;;6.50;59.54;99511.66;4483274;32;20552;-85
2023/03/05 07:39:35;;;;;;;14.23;7.32;;;;;;;6.58;59.55;99518.38;4483462;32;20131;-85
2023/03/05 07:42:00;;;;;;;15.57;8.07;;;;;;;6.64;59.56;99515.69;4483186;32;20186;-85
2023/03/05 07:44:26;;;;;;;16.92;8.55;;;;;;;6.70;59.55;99509.53;4483417;32;20381;-85
2023/03/05 07:46:51;;;;;;;16.12;8.55;;;;;;;6.45;59.54;99514.31;4483331;32;20476;-85
2023/03/05 07:49:16;;;;;;;18.02;7.80;;;;;;;6.67;59.56;99514.75;4470538;32;20142;-85
2023/03/05 07:51:42;;;;;;;15.40;7.85;;;;;;;6.74;59.56;99518.91;4483524;32;20163;-85
2023/03/05 07:54:09;;;;;;;17.08;8.13;;;;;;;6.97;59.57;99511.53;4484902;31;20164;-85
2023/03/05 07:56:34;;;;;;;15.95;7.93;;;;;;;6.99;59.57;99507.19;4484975;31;20164;-85
2023/03/05 07:59:01;;;;;;;18.83;7.50;;;;;;;7.23;59.58;99503.22;4486145;31;20139;-86
2023/03/05 08:01:29;;;;;;;15.10;7.40;;;;;;;7.34;59.59;99497.81;4470370;31;20160;-85
2023/03/05 08:03:55;;;;;;;14.77;7.47;;;;;;;7.29;59.59;99494.44;4483808;32;20134;-85
2023/03/05 08:06:20;;;;;;;21.73;8.23;;;;;;;7.46;59.60;99496.66;4485187;31;20104;-86
2023/03/05 08:08:46;;;;;;;16.50;8.73;;;;;;;7.49;59.60;99500.00;4469839;32;22688;-85
2023/03/05 08:11:12;;;;;;;17.52;7.95;;;;;;;7.45;59.59;99493.22;4483362;32;20262;-85
2023/03/05 08:13:38;;;;;;;14.93;7.28;;;;;;;7.44;59.60;99495.84;4483352;32;20152;-85
2023/03/05 08:16:24;;;;;;;17.83;8.00;;;;;;;7.30;59.58;99503.91;4471659;31;20096;-85
2023/03/05 08:18:50;;;;;;;16.02;7.87;;;;;;;7.32;59.60;99504.72;4472198;31;20151;-85
2023/03/05 08:21:20;;;;;;;14.13;6.90;;;;;;;7.33;59.59;99502.12;4473632;32;20163;-85
2023/03/05 08:23:45;;;;;;;15.30;8.15;;;;;;;7.24;59.58;99510.09;4483422;31;20082;-85
2023/03/05 08:26:13;;;;;;;14.23;7.75;;;;;;;7.29;59.59;99505.66;4485593;31;20182;-85
2023/03/05 08:28:38;;;;;;;15.18;7.93;;;;;;;7.37;59.59;99501.16;4484346;31;20179;-85
2023/03/05 08:31:08;;;;;;;17.00;6.70;;;;;;;7.48;59.60;99500.06;4482897;32;20116;-85
2023/03/05 08:33:33;;;;;;;14.80;7.32;;;;;;;7.43;59.60;99500.16;4483177;31;20092;-85
2023/03/05 08:35:58;;;;;;;15.70;7.10;;;;;;;7.53;59.60;99495.59;4482923;32;20120;-85
2023/03/05 08:38:24;;;;;;;14.75;7.55;;;;;;;7.70;59.62;99501.25;4482880;32;20532;-85
2023/03/05 08:40:50;;;;;;;17.87;7.45;;;;;;;7.62;59.61;99501.44;4477116;31;20643;-85
2023/03/05 08:43:16;;;;;;;16.58;7.43;;;;;;;7.41;59.60;99503.69;4486485;31;20140;-85
2023/03/05 08:45:41;;;;;;;13.95;7.10;;;;;;;7.46;59.60;99496.66;4479141;31;20164;-85
2023/03/05 08:48:07;;;;;;;19.37;9.00;;;;;;;7.35;59.59;99492.59;4475083;31;20144;-85
2023/03/05 08:50:32;;;;;;;19.65;8.68;;;;;;;7.61;59.61;99473.84;4485194;32;20485;-85
2023/03/05 08:52:58;;;;;;;14.68;8.05;;;;;;;7.78;59.62;99482.91;4482066;31;20134;-86
2023/03/05 08:55:24;;;;;;;14.95;7.68;;;;;;;7.76;59.62;99475.19;4484868;32;20435;-85
2023/03/05 08:57:49;;;;;;;13.35;7.37;;;;;;;7.86;59.62;99483.59;4485931;31;20176;-85
2023/03/05 09:00:15;;;;;;;14.87;7.62;;;;;;;7.77;59.62;99486.41;4484951;32;20095;-85
2023/03/05 09:02:40;;;;;;;13.95;6.82;;;;;;;7.95;59.63;99478.16;4485887;31;20084;-85
2023/03/05 09:05:06;;;;;;;18.20;7.82;;;;;;;7.77;59.62;99487.25;4486077;32;20136;-84
2023/03/05 09:07:32;;;;;;;13.30;7.40;;;;;;;7.83;59.62;99491.44;4484499;32;20404;-86
2023/03/05 09:09:57;;;;;;;15.63;7.28;;;;;;;7.92;59.63;99486.03;4487422;31;20132;-86
2023/03/05 09:12:23;;;;;;;14.63;7.53;;;;;;;8.11;59.63;99484.66;4489459;31;20477;-86
2023/03/05 09:14:48;;;;;;;16.37;8.23;;;;;;;8.22;59.63;99479.19;4484856;32;20142;-86
2023/03/05 09:17:14;;;;;;;18.73;7.78;;;;;;;8.36;59.64;99481.44;4485717;31;20464;-86
2023/03/05 09:19:39;;;;;;;16.00;8.43;;;;;;;8.44;59.65;99476.88;4484492;32;20148;-86
2023/03/05 09:22:05;;;;;;;17.50;8.00;;;;;;;8.47;59.66;99480.25;4484357;31;20148;-86
2023/03/05 09:24:30;;;;;;;20.15;8.80;;;;;;;8.59;59.67;99474.72;4485022;32;20440;-86
2023/03/05 09:26:59;;;;;;;15.43;7.87;;;;;;;8.55;59.66;99478.31;4484913;31;20109;-86
2023/03/05 09:29:25;;;;;;;18.45;8.30;;;;;;;8.72;59.67;99472.63;4487563;31;20107;-86
2023/03/05 09:31:51;;;;;;;16.65;8.50;;;;;;;8.80;59.67;99467.22;4487415;31;20153;-86
2023/03/05 09:34:16;;;;;;;14.63;8.07;;;;;;;8.81;59.67;99464.59;4487556;31;20132;-86
2023/03/05 09:36:41;;;;;;;15.13;6.80;;;;;;;8.64;59.67;99459.03;4484173;31;20164;-86
2023/03/05 09:39:07;;;;;;;14.15;7.60;;;;;;;8.89;59.69;99456.56;4484378;32;20135;-86
2023/03/05 09:41:36;;;;;;;13.07;7.07;;;;;;;8.75;59.68;99448.31;4484534;31;20144;-86
2023/03/05 09:44:13;;;;;;;12.52;6.47;;;;;;;8.74;59.67;99462.19;4471682;32;20120;-85
2023/03/05 09:46:43;;;;;;;13.02;7.28;;;;;;;8.62;59.67;99463.41;4482148;32;20100;-86
2023/03/05 09:49:19;;;;;;;14.80;7.43;;;;;;;8.60;59.67;99460.84;4485997;31;20469;-86
2023/03/05 09:51:45;;;;;;;17.58;7.85;;;;;;;8.78;59.67;99443.91;4472023;32;20088;-86
2023/03/05 09:54:28;;;;;;;14.45;7.90;;;;;;;8.99;59.68;99444.13;4478331;32;20149;-86
2023/03/05 09:56:57;;;;;;;15.15;7.97;;;;;;;9.04;59.69;99435.34;4472199;32;20202;-86
2023/03/05 09:59:49;;;;;;;17.98;7.85;;;;;;;8.77;59.67;99451.75;4471614;31;20184;-86
2023/03/05 10:02:22;;;;;;;16.73;8.75;;;;;;;8.74;59.67;99450.06;4484316;32;20110;-86
2023/03/05 10:04:52;;;;;;;15.95;7.78;;;;;;;8.70;59.67;99450.19;4484496;32;20434;-85
2023/03/05 10:07:37;;;;;;;19.55;7.43;;;;;;;8.70;59.67;99445.88;4471159;31;20150;-86
2023/03/05 10:10:04;;;;;;;17.52;7.75;;;;;;;8.86;59.67;99441.94;4484316;32;20195;-86
2023/03/05 10:12:33;;;;;;;18.25;7.78;;;;;;;8.67;59.67;99447.69;4471314;31;20129;-86
2023/03/05 10:15:01;;;;;;;11.93;6.80;;;;;;;8.71;59.67;99439.78;4485807;31;20127;-86
2023/03/05 10:17:41;;;;;;;15.18;7.00;;;;;;;8.54;59.66;99436.84;4484293;32;20385;-86
2023/03/05 10:20:14;;;;;;;19.48;9.18;;;;;;;8.59;59.67;99435.81;4466274;32;20130;-85
2023/03/05 10:22:54;;;;;;;19.15;10.10;;;;;;;8.61;59.66;99435.75;4484264;31;20084;-86
2023/03/05 10:25:28;;;;;;;14.02;8.35;;;;;;;8.67;59.67;99439.91;4485680;31;20149;-86
2023/03/05 10:28:16;;;;;;;16.58;8.38;;;;;;;8.65;59.67;99419.22;4478997;31;20153;-86
2023/03/05 10:30:57;;;;;;;16.60;7.47;;;;;;;8.56;59.66;99420.34;4487104;31;20477;-86
2023/03/05 10:33:26;;;;;;;25.37;17.05;;;;;;;8.56;59.66;99412.56;4500378;31;20117;-86
2023/03/05 10:36:20;;;;;;;31.98;25.67;;;;;;;8.65;59.66;99411.44;4484394;32;20084;-86
2023/03/05 10:39:00;;;;;;;13.25;7.45;;;;;;;8.69;59.67;99410.44;4485671;31;20437;-86
2023/03/05 10:41:31;;;;;;;348.23;149.40;;;;;;;8.95;59.68;99414.84;4485594;31;20096;-86
2023/03/05 10:44:34;;;;;;;21.20;13.18;;;;;;;8.91;59.68;99418.44;4484402;32;20152;-85
2023/03/05 10:47:00;;;;;;;28.58;15.73;;;;;;;9.09;59.69;99414.41;4485600;31;20080;-85
2023/03/05 10:49:32;;;;;;;14.45;7.75;;;;;;;9.12;59.69;99409.13;4471251;32;20371;-85
2023/03/05 10:52:14;;;;;;;12.02;7.28;;;;;;;8.87;59.67;99396.06;4494043;31;20465;-86
2023/03/05 10:54:41;;;;;;;11.05;6.35;;;;;;;9.08;59.69;99403.19;4468559;31;20634;-87
2023/03/05 10:57:18;;;;;;;13.05;7.05;;;;;;;9.17;59.70;99404.63;4471187;32;20457;-86
2023/03/05 11:00:23;;;;;;;13.10;6.82;;;;;;;9.20;59.70;99392.41;4485309;31;20529;-86
2023/03/05 11:03:03;;;;;;;12.63;6.68;;;;;;;8.98;59.69;99395.72;4476438;31;20126;-86
2023/03/05 11:05:37;;;;;;;14.13;6.50;;;;;;;8.95;59.68;99396.66;4483349;32;20084;-86
2023/03/05 11:08:33;;;;;;;14.27;6.10;;;;;;;8.89;59.68;99387.31;4486759;31;20092;-85
2023/03/05 11:11:11;;;;;;;10.60;6.00;;;;;;;9.20;59.70;99391.53;4483868;32;20104;-86
2023/03/05 11:13:57;;;;;;;13.15;6.05;;;;;;;9.45;59.71;99371.66;4471091;32;20135;-86
2023/03/05 11:16:28;;;;;;;10.90;5.43;;;;;;;9.61;59.72;99377.19;4483712;32;20108;-86
2023/03/05 11:19:17;;;;;;;15.70;7.03;;;;;;;9.64;59.72;99377.09;4470872;31;20096;-86
2023/03/05 11:21:45;;;;;;;15.55;7.05;;;;;;;9.56;59.71;99373.06;4485174;31;20512;-86
2023/03/05 11:24:12;;;;;;;15.93;6.53;;;;;;;9.65;59.73;99364.94;4486824;31;20112;-87
2023/03/05 11:26:51;;;;;;;13.02;5.93;;;;;;;9.79;59.74;99365.34;4483906;32;20118;-84
2023/03/05 11:29:31;;;;;;;9.77;6.22;;;;;;;9.62;59.72;99368.50;4484019;32;20123;-85
2023/03/05 11:32:24;;;;;;;11.50;6.07;;;;;;;9.57;59.71;99366.97;4481491;31;20144;-85
2023/03/05 11:34:50;;;;;;;9.80;5.37;;;;;;;9.45;59.71;99358.66;4469195;31;20092;-84
2023/03/05 11:37:27;;;;;;;9.18;5.20;;;;;;;9.27;59.71;99361.91;4486343;31;20110;-84